In Rescue
 
Open Full Screen Window  High Contrast Mode
October 19, 2020 7:37 PM CDT
Weather Information
Wind Direction
  ---
Wind Speed
  00 kt (0 mph)
Wind Gust
  00 kt (0 mph)
Altimeter
30.22 in
Visibility
10 SM
Temperature
02° C
36° F
Dewpoint
-07° C
19° F
Humidity
52%
1hr Rain Fall
00.00 in.
24hr Rain Fall
00.00 in.
Sky Condition
Overcast @ 5,000 ft
VFR

METAR KJKJ 200037Z AUTO 00000KT 10SM OVC050 02/M07 A3022 RMK AO2

FAA Disclaimer: The data displayed is for advisory purposes only and is not to be used for flight planning or operations.